createdAt,value
2022-09-10T00:01:06.261Z,71.41
2022-09-10T00:03:32.868Z,71.35
2022-09-10T00:05:59.432Z,72.02
2022-09-10T00:08:26.048Z,71.51
2022-09-10T00:10:52.745Z,71.41
2022-09-10T00:13:21.877Z,72.17
2022-09-10T00:15:51.146Z,72.25
2022-09-10T00:18:19.818Z,71.75
2022-09-10T00:20:49.285Z,71.56
2022-09-10T00:23:16.873Z,72.69
2022-09-10T00:25:43.511Z,72.24
2022-09-10T00:28:10.235Z,72.32
2022-09-10T00:30:47.576Z,72.05
2022-09-10T00:33:16.135Z,72.61
2022-09-10T00:35:42.802Z,72.13
2022-09-10T00:38:10.353Z,72.57
2022-09-10T00:40:37.972Z,71.93
2022-09-10T00:43:15.927Z,72.86
2022-09-10T00:45:44.245Z,73.10
2022-09-10T00:48:18.309Z,73.68
2022-09-10T00:50:46.275Z,73.43
2022-09-10T00:53:16.073Z,73.54
2022-09-10T00:55:45.187Z,73.60
2022-09-10T00:58:13.182Z,73.00
2022-09-10T01:00:41.294Z,73.40
2022-09-10T01:03:11.557Z,73.47
2022-09-10T01:05:42.365Z,73.31
2022-09-10T01:08:17.228Z,72.64
2022-09-10T01:11:08.678Z,72.54
2022-09-10T01:13:51.808Z,73.97
2022-09-10T01:16:35.501Z,73.52
2022-09-10T01:19:36.736Z,75.37
2022-09-10T01:22:14.167Z,78.10
2022-09-10T01:25:07.176Z,76.90
2022-09-10T01:27:39.943Z,76.23
2022-09-10T01:30:10.285Z,78.05
2022-09-10T01:32:59.246Z,76.62
2022-09-10T01:35:36.937Z,76.71
2022-09-10T01:38:08.310Z,76.27
2022-09-10T01:40:35.669Z,77.15
2022-09-10T01:43:07.997Z,78.01
2022-09-10T01:46:03.242Z,75.50
2022-09-10T01:48:51.301Z,75.38
2022-09-10T01:51:31.804Z,75.71
2022-09-10T01:54:00.222Z,76.15
2022-09-10T01:56:51.673Z,75.40
2022-09-10T01:59:25.551Z,75.35
2022-09-10T02:01:58.279Z,74.99
2022-09-10T02:04:25.792Z,74.23
2022-09-10T02:06:52.509Z,74.17
2022-09-10T02:09:19.783Z,73.58
2022-09-10T02:11:53.491Z,73.28
2022-09-10T02:14:57.245Z,73.01
2022-09-10T02:17:37.812Z,73.41
2022-09-10T02:20:08.628Z,74.30
2022-09-10T02:22:39.817Z,73.99
2022-09-10T02:25:06.994Z,73.61
2022-09-10T02:27:33.818Z,73.53
2022-09-10T02:30:01.095Z,73.95
2022-09-10T02:32:28.933Z,73.95
2022-09-10T02:34:55.815Z,74.83
2022-09-10T02:37:22.579Z,73.98
2022-09-10T02:39:49.163Z,74.50
2022-09-10T02:42:17.117Z,74.34
2022-09-10T02:44:47.877Z,74.33
2022-09-10T02:47:15.162Z,74.29
2022-09-10T02:49:41.926Z,74.89
2022-09-10T02:52:08.933Z,74.16
2022-09-10T02:54:37.127Z,73.37
2022-09-10T02:57:04.007Z,73.02
2022-09-10T02:59:32.669Z,72.79
2022-09-10T03:01:59.582Z,73.33
2022-09-10T03:04:26.149Z,73.38
2022-09-10T03:06:53.484Z,72.67
2022-09-10T03:09:20.263Z,73.88
2022-09-10T03:11:47.381Z,74.14
2022-09-10T03:14:20.128Z,73.97
2022-09-10T03:16:47.445Z,74.96
2022-09-10T03:19:14.619Z,73.82
2022-09-10T03:21:47.499Z,74.18
2022-09-10T03:24:15.496Z,74.55
2022-09-10T03:26:44.404Z,74.17
2022-09-10T03:29:11.578Z,74.17
2022-09-10T03:31:39.911Z,74.32
2022-09-10T03:34:06.704Z,74.75
2022-09-10T03:36:33.640Z,75.01
2022-09-10T03:39:00.379Z,74.96
2022-09-10T03:41:30.699Z,75.12
2022-09-10T03:43:58.200Z,74.53
2022-09-10T03:46:26.244Z,74.43
2022-09-10T03:48:55.652Z,75.04
2022-09-10T03:51:24.706Z,74.18
2022-09-10T03:53:51.307Z,75.04
2022-09-10T03:56:20.564Z,75.79
2022-09-10T03:58:49.149Z,75.55
2022-09-10T04:01:17.411Z,74.74
2022-09-10T04:03:46.924Z,74.52
2022-09-10T04:06:16.120Z,74.62
2022-09-10T04:08:46.189Z,74.24
2022-09-10T04:11:14.833Z,74.90
2022-09-10T04:13:42.372Z,74.89
2022-09-10T04:16:11.889Z,74.46
2022-09-10T04:18:39.298Z,75.67
2022-09-10T04:21:06.147Z,74.96
2022-09-10T04:23:33.213Z,74.62
2022-09-10T04:26:11.411Z,75.41
2022-09-10T04:28:38.388Z,75.28
2022-09-10T04:31:05.016Z,75.04
2022-09-10T04:33:33.194Z,74.01
2022-09-10T04:36:01.003Z,74.78
2022-09-10T04:38:32.759Z,73.84
2022-09-10T04:41:00.794Z,73.36
2022-09-10T04:43:27.868Z,74.07
2022-09-10T04:45:55.532Z,74.34
2022-09-10T04:48:23.007Z,74.02
2022-09-10T04:51:14.699Z,73.65
2022-09-10T04:53:40.600Z,73.77
2022-09-10T04:56:07.534Z,73.85
2022-09-10T04:58:39.099Z,74.09
2022-09-10T05:01:07.076Z,74.34
2022-09-10T05:03:34.030Z,73.91
2022-09-10T05:06:01.117Z,73.88
2022-09-10T05:08:27.734Z,73.26
2022-09-10T05:10:57.675Z,73.82
2022-09-10T05:13:24.323Z,73.18
2022-09-10T05:15:51.035Z,74.06
2022-09-10T05:18:18.155Z,74.06
2022-09-10T05:20:45.010Z,73.65
2022-09-10T05:23:12.191Z,73.52
2022-09-10T05:25:39.369Z,73.94
2022-09-10T05:28:06.668Z,73.78
2022-09-10T05:30:33.350Z,73.51
2022-09-10T05:33:01.272Z,73.09
2022-09-10T05:35:35.963Z,73.43
2022-09-10T05:38:02.981Z,73.51
2022-09-10T05:40:35.400Z,73.19
2022-09-10T05:43:02.558Z,73.84
2022-09-10T05:45:29.285Z,74.25
2022-09-10T05:47:57.201Z,73.34
2022-09-10T05:50:23.980Z,73.53
2022-09-10T05:52:52.216Z,73.30
2022-09-10T05:55:18.903Z,73.90
2022-09-10T05:57:46.814Z,73.96
2022-09-10T06:00:16.526Z,73.98
2022-09-10T06:02:51.166Z,74.63
2022-09-10T06:05:28.208Z,74.40
2022-09-10T06:07:56.617Z,74.49
2022-09-10T06:10:23.656Z,73.54
2022-09-10T06:12:54.112Z,74.21
2022-09-10T06:15:21.335Z,73.36
2022-09-10T06:17:50.020Z,73.96
2022-09-10T06:20:17.208Z,73.31
2022-09-10T06:22:45.484Z,73.44
2022-09-10T06:25:12.575Z,73.55
2022-09-10T06:27:39.517Z,73.62
2022-09-10T06:30:07.010Z,73.25
2022-09-10T06:32:34.606Z,72.93
2022-09-10T06:35:02.474Z,73.05
2022-09-10T06:37:29.105Z,74.16
2022-09-10T06:39:55.763Z,73.36
2022-09-10T06:42:23.828Z,72.90
2022-09-10T06:45:16.789Z,73.35
2022-09-10T06:50:57.891Z,73.78
2022-09-10T06:53:30.427Z,72.64
2022-09-10T06:55:59.932Z,72.58
2022-09-10T06:58:28.943Z,72.17
2022-09-10T07:00:56.156Z,71.57
2022-09-10T07:03:24.517Z,72.24
2022-09-10T07:05:55.577Z,72.55
2022-09-10T07:08:25.591Z,72.40
2022-09-10T07:11:00.235Z,72.31
2022-09-10T07:13:27.460Z,72.29
2022-09-10T07:15:55.052Z,72.24
2022-09-10T07:18:21.801Z,71.21
2022-09-10T07:20:48.402Z,71.94
2022-09-10T07:23:17.788Z,72.15
2022-09-10T07:25:44.651Z,72.52
2022-09-10T07:28:22.488Z,71.56
2022-09-10T07:30:50.359Z,71.76
2022-09-10T07:33:16.958Z,72.04
2022-09-10T07:35:44.588Z,72.86
2022-09-10T07:38:17.242Z,69.91
2022-09-10T07:40:45.431Z,71.37
2022-09-10T07:43:12.908Z,72.74
2022-09-10T07:45:40.629Z,72.78
2022-09-10T07:48:09.109Z,72.15
2022-09-10T07:50:38.322Z,73.04
2022-09-10T07:53:05.528Z,73.07
2022-09-10T07:55:32.949Z,71.31
2022-09-10T07:58:00.435Z,70.74
2022-09-10T08:00:29.180Z,70.70
2022-09-10T08:02:59.463Z,70.05
2022-09-10T08:05:29.075Z,70.19
2022-09-10T08:07:55.675Z,70.71
2022-09-10T08:10:24.712Z,70.01
2022-09-10T08:12:52.076Z,71.04
2022-09-10T08:15:18.740Z,70.12
2022-09-10T08:17:46.063Z,70.15
2022-09-10T08:20:13.489Z,70.75
2022-09-10T08:22:43.226Z,70.21
2022-09-10T08:25:10.692Z,69.46
2022-09-10T08:27:37.329Z,69.09
2022-09-10T08:30:06.455Z,69.24
2022-09-10T08:32:36.064Z,68.08
2022-09-10T08:35:05.799Z,65.36
2022-09-10T08:37:34.190Z,69.26
2022-09-10T08:40:01.854Z,67.44
2022-09-10T08:43:01.413Z,66.66
2022-09-10T08:45:31.733Z,66.82
2022-09-10T08:48:05.883Z,65.97
2022-09-10T08:50:52.556Z,67.95
2022-09-10T08:53:34.562Z,67.65
2022-09-10T08:56:10.772Z,67.04
2022-09-10T08:58:57.545Z,65.63
2022-09-10T09:01:36.939Z,67.88
2022-09-10T09:04:09.842Z,66.68
2022-09-10T09:06:41.236Z,66.33
2022-09-10T09:09:14.825Z,66.02
2022-09-10T09:12:00.990Z,64.96
2022-09-10T09:14:51.285Z,67.20
2022-09-10T09:17:45.319Z,63.26
2022-09-10T09:20:17.307Z,66.14
2022-09-10T09:22:53.714Z,60.21
2022-09-10T09:25:56.504Z,63.19
2022-09-10T09:28:28.139Z,62.26
2022-09-10T09:30:57.633Z,65.32
2022-09-10T09:33:25.132Z,64.04
2022-09-10T09:36:00.200Z,64.50
2022-09-10T09:38:37.888Z,63.33
2022-09-10T09:41:23.783Z,63.06
2022-09-10T09:44:03.424Z,64.44
2022-09-10T09:46:32.207Z,61.92
2022-09-10T09:49:01.752Z,65.13
2022-09-10T09:51:35.592Z,64.20
2022-09-10T09:56:58.845Z,59.52
2022-09-10T09:59:34.851Z,64.65
2022-09-10T10:02:19.612Z,62.90
2022-09-10T10:05:23.336Z,61.44
2022-09-10T10:07:50.375Z,62.26
2022-09-10T10:10:24.346Z,61.81
2022-09-10T10:12:52.122Z,62.47
2022-09-10T10:15:33.769Z,61.12
2022-09-10T10:18:03.302Z,59.08
2022-09-10T10:20:36.485Z,59.73
2022-09-10T10:23:31.127Z,62.07
2022-09-10T10:25:58.032Z,62.62
2022-09-10T10:28:25.765Z,64.33
2022-09-10T10:30:58.105Z,64.98
2022-09-10T10:33:28.888Z,61.87
2022-09-10T10:36:07.602Z,61.13
2022-09-10T10:38:40.343Z,62.24
2022-09-10T10:41:36.785Z,59.30
2022-09-10T10:44:14.989Z,61.54
2022-09-10T10:46:53.955Z,63.37
2022-09-10T10:49:23.424Z,64.49
2022-09-10T10:52:03.730Z,67.18
2022-09-10T10:54:38.777Z,68.37
2022-09-10T10:57:16.834Z,65.54
2022-09-10T11:00:04.709Z,65.65
2022-09-10T11:02:45.552Z,68.38
2022-09-10T11:05:31.107Z,66.08
2022-09-10T11:08:05.786Z,65.45
2022-09-10T11:11:00.414Z,66.17
2022-09-10T11:13:34.504Z,64.14
2022-09-10T11:16:09.616Z,64.87
2022-09-10T11:18:46.017Z,63.45
2022-09-10T11:21:29.654Z,64.73
2022-09-10T11:24:03.299Z,64.08
2022-09-10T11:26:47.407Z,62.89
2022-09-10T11:29:23.013Z,63.17
2022-09-10T11:32:11.168Z,61.29
2022-09-10T11:34:59.494Z,60.81
2022-09-10T11:37:32.044Z,60.23
2022-09-10T11:40:05.662Z,57.40
2022-09-10T11:42:36.724Z,58.73
2022-09-10T11:45:33.529Z,61.07
2022-09-10T11:48:07.630Z,59.54
2022-09-10T11:50:36.972Z,59.47
2022-09-10T11:53:07.416Z,61.52
2022-09-10T11:56:07.888Z,57.73
2022-09-10T11:58:49.612Z,54.28
2022-09-10T12:01:49.268Z,61.22
2022-09-10T12:04:42.722Z,60.37
2022-09-10T12:07:33.501Z,61.29
2022-09-10T12:10:14.697Z,64.98
2022-09-10T12:12:43.687Z,65.19
2022-09-10T12:15:17.906Z,63.20
2022-09-10T12:17:49.197Z,63.00
2022-09-10T12:20:19.274Z,64.61
2022-09-10T12:22:47.396Z,62.54
2022-09-10T12:25:16.831Z,62.55
2022-09-10T12:27:51.801Z,61.46
2022-09-10T12:30:27.536Z,57.74
2022-09-10T12:32:59.109Z,59.19
2022-09-10T12:35:32.635Z,56.79
2022-09-10T12:38:36.702Z,56.89
2022-09-10T12:41:04.851Z,57.51
2022-09-10T12:43:40.514Z,55.55
2022-09-10T12:46:07.352Z,58.34
2022-09-10T12:48:40.726Z,58.18
2022-09-10T12:51:20.551Z,56.56
2022-09-10T12:54:14.964Z,58.67
2022-09-10T12:57:20.252Z,55.51
2022-09-10T12:59:49.638Z,57.11
2022-09-10T13:02:32.565Z,56.98
2022-09-10T13:05:06.373Z,57.46
2022-09-10T13:07:37.038Z,52.80
2022-09-10T13:10:07.919Z,55.01
2022-09-10T13:12:36.407Z,51.86
2022-09-10T13:15:03.704Z,55.73
2022-09-10T13:17:59.875Z,51.85
2022-09-10T13:20:26.282Z,54.95
2022-09-10T13:22:57.620Z,51.78
2022-09-10T13:25:45.034Z,51.96
2022-09-10T13:28:29.927Z,50.56
2022-09-10T13:31:08.851Z,51.31
2022-09-10T13:33:56.115Z,53.22
2022-09-10T13:36:48.159Z,54.28
2022-09-10T13:39:40.104Z,53.12
2022-09-10T13:42:35.649Z,50.05
2022-09-10T13:45:19.028Z,55.49
2022-09-10T13:48:01.822Z,51.83
2022-09-10T13:50:35.094Z,48.83
2022-09-10T13:53:04.472Z,51.56
2022-09-10T13:55:31.763Z,51.13
2022-09-10T13:58:09.349Z,50.10
2022-09-10T14:00:48.669Z,50.86
2022-09-10T14:03:19.570Z,53.26
2022-09-10T14:05:57.304Z,52.81
2022-09-10T14:08:30.484Z,51.84
2022-09-10T14:11:24.013Z,47.95
2022-09-10T14:13:57.829Z,51.67
2022-09-10T14:16:42.808Z,51.37
2022-09-10T14:19:49.333Z,52.38
2022-09-10T14:22:17.415Z,53.75
2022-09-10T14:27:15.702Z,56.29
2022-09-10T14:29:42.744Z,58.32
2022-09-10T14:32:27.731Z,57.69
2022-09-10T14:34:54.752Z,60.34
2022-09-10T14:37:33.840Z,59.40
2022-09-10T14:40:13.876Z,58.81
2022-09-10T14:42:40.602Z,58.19
2022-09-10T14:45:39.000Z,59.94
2022-09-10T14:48:06.467Z,61.03
2022-09-10T14:50:34.730Z,60.43
2022-09-10T14:53:01.367Z,60.06
2022-09-10T14:55:30.640Z,63.73
2022-09-10T14:57:57.483Z,62.30
2022-09-10T15:00:25.914Z,63.20
2022-09-10T15:02:53.763Z,63.60
2022-09-10T15:05:20.630Z,62.14
2022-09-10T15:07:47.457Z,60.59
2022-09-10T15:10:14.288Z,62.18
2022-09-10T15:12:43.653Z,61.02
2022-09-10T15:15:17.478Z,61.39
2022-09-10T15:17:44.390Z,62.51
2022-09-10T15:20:16.807Z,60.90
2022-09-10T15:22:43.950Z,63.25
2022-09-10T15:25:29.775Z,64.02
2022-09-10T15:27:56.506Z,64.03
2022-09-10T15:30:24.296Z,63.98
2022-09-10T15:32:52.873Z,64.46
2022-09-10T15:35:19.396Z,63.94
2022-09-10T15:37:46.044Z,66.71
2022-09-10T15:40:12.867Z,72.20
2022-09-10T15:42:39.543Z,72.48
2022-09-10T15:45:07.070Z,72.46
2022-09-10T15:47:33.730Z,76.65
2022-09-10T15:50:00.281Z,77.57
2022-09-10T15:52:26.946Z,75.56
2022-09-10T15:54:54.270Z,77.61
2022-09-10T15:57:21.080Z,76.10
2022-09-10T15:59:47.662Z,76.92
2022-09-10T16:02:14.226Z,76.33
2022-09-10T16:04:43.094Z,75.44
2022-09-10T16:07:09.931Z,74.55
2022-09-10T16:09:36.443Z,75.50
2022-09-10T16:12:03.403Z,74.84
2022-09-10T16:14:32.041Z,75.13
2022-09-10T16:16:58.800Z,75.53
2022-09-10T16:19:25.417Z,74.74
2022-09-10T16:21:53.002Z,74.28
2022-09-10T16:24:19.612Z,74.12
2022-09-10T16:26:47.912Z,72.45
2022-09-10T16:29:19.509Z,72.83
2022-09-10T16:31:46.282Z,72.48
2022-09-10T16:34:16.240Z,72.34
2022-09-10T16:36:43.611Z,72.68
2022-09-10T16:39:13.066Z,72.87
2022-09-10T16:41:48.488Z,73.53
2022-09-10T16:44:17.495Z,72.95
2022-09-10T16:46:44.797Z,72.60
2022-09-10T16:49:15.101Z,72.52
2022-09-10T16:51:42.901Z,72.64
2022-09-10T16:54:10.527Z,72.33
2022-09-10T16:56:37.903Z,72.84
2022-09-10T16:59:07.479Z,72.96
2022-09-10T17:01:37.442Z,73.44
2022-09-10T17:04:04.748Z,72.25
2022-09-10T17:06:31.535Z,73.58
2022-09-10T17:08:59.454Z,73.02
2022-09-10T17:11:27.481Z,71.47
2022-09-10T17:13:56.858Z,73.24
2022-09-10T17:16:37.698Z,73.22
2022-09-10T17:19:10.944Z,73.33
2022-09-10T17:21:39.313Z,73.18
2022-09-10T17:24:09.861Z,72.75
2022-09-10T17:26:37.197Z,73.01
2022-09-10T17:29:15.679Z,73.11
2022-09-10T17:31:42.774Z,73.41
2022-09-10T17:34:13.533Z,73.48
2022-09-10T17:36:45.594Z,74.36
2022-09-10T17:39:12.773Z,73.78
2022-09-10T17:41:39.920Z,73.62
2022-09-10T17:44:08.016Z,73.19
2022-09-10T17:46:36.069Z,73.30
2022-09-10T17:49:03.771Z,73.63
2022-09-10T17:51:32.804Z,73.54
2022-09-10T17:54:02.422Z,72.99
2022-09-10T17:56:29.399Z,73.05
2022-09-10T17:58:58.359Z,72.96
2022-09-10T18:01:30.391Z,72.95
2022-09-10T18:03:57.145Z,72.91
2022-09-10T18:06:25.580Z,72.89
2022-09-10T18:08:52.751Z,72.72
2022-09-10T18:11:22.618Z,73.01
2022-09-10T18:13:52.125Z,72.89
2022-09-10T18:16:22.283Z,72.34
2022-09-10T18:18:56.669Z,72.39
2022-09-10T18:21:26.320Z,73.15
2022-09-10T18:24:00.146Z,73.07
2022-09-10T18:26:30.100Z,72.92
2022-09-10T18:29:09.397Z,73.25
2022-09-10T18:31:38.068Z,72.88
2022-09-10T18:34:06.708Z,72.61
2022-09-10T18:36:34.031Z,72.82
2022-09-10T18:39:05.786Z,72.76
2022-09-10T18:41:35.988Z,73.01
2022-09-10T18:44:04.203Z,72.85
2022-09-10T18:46:32.282Z,72.29
2022-09-10T18:48:59.653Z,72.74
2022-09-10T18:51:27.994Z,72.79
2022-09-10T18:53:56.551Z,73.34
2022-09-10T18:56:25.419Z,72.82
2022-09-10T18:58:56.758Z,73.43
2022-09-10T19:01:24.284Z,72.42
2022-09-10T19:03:51.063Z,72.51
2022-09-10T19:06:20.744Z,72.44
2022-09-10T19:08:55.566Z,72.52
2022-09-10T19:11:24.478Z,72.62
2022-09-10T19:13:53.691Z,72.63
2022-09-10T19:16:22.628Z,73.30
2022-09-10T19:18:51.124Z,72.67
2022-09-10T19:21:20.121Z,72.77
2022-09-10T19:23:48.348Z,72.58
2022-09-10T19:26:15.245Z,73.24
2022-09-10T19:28:42.140Z,71.95
2022-09-10T19:31:10.674Z,73.30
2022-09-10T19:33:37.817Z,72.52
2022-09-10T19:36:06.104Z,73.04
2022-09-10T19:38:37.777Z,73.46
2022-09-10T19:41:12.675Z,73.30
2022-09-10T19:43:40.705Z,73.29
2022-09-10T19:46:10.571Z,73.10
2022-09-10T19:48:37.465Z,73.17
2022-09-10T19:51:05.215Z,72.94
2022-09-10T19:53:33.404Z,72.96
2022-09-10T19:56:06.859Z,73.17
2022-09-10T19:58:37.882Z,72.90
2022-09-10T20:01:12.051Z,71.42
2022-09-10T20:03:40.071Z,73.11
2022-09-10T20:06:08.176Z,72.83
2022-09-10T20:08:35.183Z,73.29
2022-09-10T20:11:05.974Z,72.17
2022-09-10T20:13:33.506Z,72.88
2022-09-10T20:16:06.878Z,73.25
2022-09-10T20:18:35.059Z,71.11
2022-09-10T20:21:16.173Z,72.28
2022-09-10T20:23:44.647Z,72.48
2022-09-10T20:26:16.740Z,72.35
2022-09-10T20:28:43.901Z,72.52
2022-09-10T20:31:12.163Z,71.40
2022-09-10T20:33:40.282Z,73.50
2022-09-10T20:36:11.893Z,72.26
2022-09-10T20:38:39.370Z,70.07
2022-09-10T20:41:06.328Z,71.36
2022-09-10T20:43:33.455Z,72.32
2022-09-10T20:46:00.576Z,72.27
2022-09-10T20:48:27.240Z,72.60
2022-09-10T20:50:58.790Z,71.02
2022-09-10T20:53:26.512Z,73.03
2022-09-10T20:55:53.214Z,70.86
2022-09-10T20:58:19.895Z,70.60
2022-09-10T21:00:46.854Z,72.12
2022-09-10T21:03:13.383Z,71.04
2022-09-10T21:05:40.344Z,71.91
2022-09-10T21:08:06.990Z,72.25
2022-09-10T21:10:37.372Z,71.84
2022-09-10T21:13:04.771Z,72.05
2022-09-10T21:15:31.425Z,71.23
2022-09-10T21:17:58.456Z,71.26
2022-09-10T21:20:25.540Z,71.18
2022-09-10T21:22:52.403Z,71.24
2022-09-10T21:25:19.226Z,69.49
2022-09-10T21:27:46.859Z,70.50
2022-09-10T21:30:13.452Z,72.74
2022-09-10T21:32:40.500Z,72.21
2022-09-10T21:35:07.401Z,71.66
2022-09-10T21:37:33.930Z,72.10
2022-09-10T21:40:00.944Z,72.10
2022-09-10T21:42:27.624Z,71.50
2022-09-10T21:44:54.654Z,72.29
2022-09-10T21:47:21.263Z,72.17
2022-09-10T21:49:48.324Z,70.25
2022-09-10T21:52:14.984Z,71.15
2022-09-10T21:54:41.728Z,70.64
2022-09-10T21:57:11.422Z,71.14
2022-09-10T21:59:37.954Z,70.88
2022-09-10T22:02:04.896Z,70.25
2022-09-10T22:04:31.551Z,71.45
2022-09-10T22:06:58.631Z,70.72
2022-09-10T22:09:26.297Z,71.46
2022-09-10T22:11:54.211Z,71.14
2022-09-10T22:14:22.751Z,68.96
2022-09-10T22:16:49.683Z,70.36
2022-09-10T22:19:19.234Z,70.40
2022-09-10T22:21:46.137Z,70.95
2022-09-10T22:24:17.233Z,70.60
2022-09-10T22:26:45.065Z,72.19
2022-09-10T22:29:12.633Z,71.97
2022-09-10T22:31:39.436Z,71.17
2022-09-10T22:34:08.304Z,70.42
2022-09-10T22:36:37.551Z,72.68
2022-09-10T22:39:12.345Z,72.50
2022-09-10T22:41:39.695Z,72.93
2022-09-10T22:44:07.197Z,72.69
2022-09-10T22:46:34.892Z,72.78
2022-09-10T22:49:01.483Z,72.37
2022-09-10T22:51:30.471Z,74.83
2022-09-10T22:53:58.113Z,74.16
2022-09-10T22:56:29.076Z,74.66
2022-09-10T22:58:57.653Z,75.25
2022-09-10T23:01:27.668Z,74.46
2022-09-10T23:03:59.128Z,75.62
2022-09-10T23:06:28.224Z,75.45
2022-09-10T23:08:56.779Z,75.72
2022-09-10T23:11:26.270Z,75.45
2022-09-10T23:13:57.194Z,74.83
2022-09-10T23:16:31.083Z,74.26
2022-09-10T23:19:00.167Z,74.72
2022-09-10T23:21:28.659Z,73.91
2022-09-10T23:23:57.460Z,74.24
2022-09-10T23:26:24.828Z,73.75
2022-09-10T23:28:51.540Z,73.20
2022-09-10T23:31:26.301Z,73.94
2022-09-10T23:34:16.256Z,73.87
2022-09-10T23:36:44.843Z,73.56
2022-09-10T23:39:14.282Z,73.25
2022-09-10T23:41:41.695Z,73.04
2022-09-10T23:44:08.783Z,72.91
2022-09-10T23:46:36.041Z,73.07
2022-09-10T23:49:03.085Z,73.76
2022-09-10T23:51:29.730Z,73.67
2022-09-10T23:53:56.265Z,73.01
2022-09-10T23:56:23.477Z,73.38
2022-09-10T23:58:50.337Z,73.30
